Time;durP1;ratioP1;P1;durP2;ratioP2;P2;SDS_P1;SDS_P2;PMS_P1;PMS_P2;Temp;Humidity;BMP_temperature;BMP_pressure;BME280_temperature;BME280_humidity;BME280_pressure;Samples;Min_cycle;Max_cycle;Signal;HPM_P1;HPM_P2
2024/01/25 00:00:43;;;;;;;8.53;1.90;;;13.40;67.50;12.30;97363.00;;;;5082206;28;20227;-79
2024/01/25 00:03:11;;;;;;;3.77;1.80;;;13.40;67.50;12.30;97362.00;;;;5076895;28;20207;-80
2024/01/25 00:05:38;;;;;;;5.03;1.60;;;13.40;67.40;12.30;97364.00;;;;5072569;28;20188;-80
2024/01/25 00:08:06;;;;;;;4.93;1.63;;;13.40;67.30;12.30;97366.00;;;;5073543;28;20722;-79
2024/01/25 00:10:33;;;;;;;9.80;2.30;;;13.40;67.30;12.30;97363.00;;;;5074151;28;20216;-79
2024/01/25 00:13:02;;;;;;;11.13;2.27;;;13.40;67.30;12.30;97369.00;;;;5070534;28;20270;-79
2024/01/25 00:15:29;;;;;;;7.67;1.60;;;13.40;67.20;12.30;97358.00;;;;5074380;28;20633;-79
2024/01/25 00:17:57;;;;;;;9.27;2.07;;;13.40;67.10;12.30;97359.00;;;;5068594;28;20555;-80
2024/01/25 00:20:24;;;;;;;6.30;1.77;;;13.50;67.40;12.30;97360.00;;;;5073332;28;20222;-79
2024/01/25 00:22:52;;;;;;;4.37;1.77;;;13.50;67.40;12.30;97355.00;;;;5074618;28;20211;-79
2024/01/25 00:25:20;;;;;;;5.10;1.57;;;13.40;67.40;12.30;97348.00;;;;5074058;28;20230;-79
2024/01/25 00:27:47;;;;;;;6.23;1.73;;;13.50;67.60;12.30;97353.00;;;;5071330;28;20196;-79
2024/01/25 00:30:16;;;;;;;8.23;1.87;;;13.40;67.50;12.30;97350.00;;;;5071407;28;20726;-79
2024/01/25 00:32:44;;;;;;;4.40;1.80;;;13.40;67.30;12.30;97344.00;;;;5068513;28;20228;-79
2024/01/25 00:35:13;;;;;;;9.50;2.10;;;13.40;67.60;12.30;97337.00;;;;5077570;28;20794;-80
2024/01/25 00:37:41;;;;;;;8.90;1.60;;;13.40;67.50;12.30;97337.00;;;;5076101;28;20221;-79
2024/01/25 00:40:10;;;;;;;5.87;1.40;;;13.40;67.60;12.30;97340.00;;;;5077119;28;20237;-79
2024/01/25 00:42:43;;;;;;;5.83;1.70;;;13.40;67.60;12.30;97354.00;;;;5072955;28;20227;-80
2024/01/25 00:45:12;;;;;;;4.60;1.80;;;13.40;67.40;12.30;97358.00;;;;5072790;28;20215;-80
2024/01/25 00:47:42;;;;;;;8.60;1.43;;;13.40;67.40;12.30;97367.00;;;;5067283;28;20316;-79
2024/01/25 00:50:10;;;;;;;7.00;1.80;;;13.40;67.50;12.30;97367.00;;;;5071233;28;20212;-79
2024/01/25 00:52:38;;;;;;;7.80;1.53;;;13.40;67.60;12.30;97371.00;;;;5071994;28;20192;-80
2024/01/25 00:55:07;;;;;;;5.90;1.63;;;13.40;67.60;12.30;97363.00;;;;5087228;28;20188;-79
2024/01/25 00:57:35;;;;;;;8.03;1.90;;;13.40;67.50;12.30;97370.00;;;;5071058;28;20239;-79
2024/01/25 01:00:05;;;;;;;5.63;1.40;;;13.40;67.60;12.30;97361.00;;;;5069489;28;20253;-79
2024/01/25 01:02:37;;;;;;;11.77;2.00;;;13.40;67.50;12.20;97365.00;;;;5070821;28;20575;-79
2024/01/25 01:05:11;;;;;;;6.57;1.63;;;13.40;67.40;12.30;97360.00;;;;5070242;28;20224;-80
2024/01/25 01:07:40;;;;;;;5.17;1.63;;;13.40;67.20;12.20;97366.00;;;;5069735;28;20238;-79
2024/01/25 01:10:10;;;;;;;7.17;2.40;;;13.40;67.60;12.20;97366.00;;;;5052243;28;20215;-80
2024/01/25 01:12:37;;;;;;;6.53;1.53;;;13.40;67.60;12.20;97357.00;;;;5069530;28;20576;-80
2024/01/25 01:15:06;;;;;;;7.47;1.60;;;13.40;67.70;12.20;97369.00;;;;5070151;28;20215;-80
2024/01/25 01:17:33;;;;;;;4.50;2.07;;;13.40;67.80;12.30;97366.00;;;;5069841;28;20212;-80
2024/01/25 01:20:00;;;;;;;3.33;1.70;;;13.40;67.70;12.30;97379.00;;;;5071164;28;20229;-80
2024/01/25 01:22:29;;;;;;;5.90;1.53;;;13.40;67.70;12.30;97369.00;;;;5069874;28;20298;-79
2024/01/25 01:24:56;;;;;;;5.73;1.50;;;13.40;67.70;12.30;97371.00;;;;5070718;28;20616;-80
2024/01/25 01:27:23;;;;;;;6.83;1.87;;;13.40;67.80;12.30;97373.00;;;;5070999;28;20192;-79
2024/01/25 01:29:51;;;;;;;7.90;2.40;;;13.40;67.70;12.30;97375.00;;;;5074715;28;20692;-79
2024/01/25 01:32:19;;;;;;;6.37;1.70;;;13.40;67.60;12.30;97375.00;;;;5071403;28;20615;-80
2024/01/25 01:34:46;;;;;;;5.33;1.40;;;13.40;67.70;12.30;97382.00;;;;5074086;28;20188;-79
2024/01/25 01:37:14;;;;;;;6.10;1.33;;;13.40;67.80;12.30;97363.00;;;;5071698;28;20243;-79
2024/01/25 01:39:43;;;;;;;6.83;2.00;;;13.40;67.80;12.30;97372.00;;;;5073058;28;20257;-79
2024/01/25 01:42:10;;;;;;;4.93;1.70;;;13.50;67.70;12.30;97374.00;;;;5072150;28;20184;-80
2024/01/25 01:44:37;;;;;;;4.87;1.53;;;13.40;67.90;12.30;97365.00;;;;5065449;28;20192;-79
2024/01/25 01:47:05;;;;;;;6.17;1.43;;;13.50;68.70;12.30;97361.00;;;;5068919;28;20230;-79
2024/01/25 01:49:32;;;;;;;5.73;1.60;;;13.40;67.80;12.30;97357.00;;;;5071259;28;20212;-79
2024/01/25 01:52:08;;;;;;;4.73;1.50;;;13.40;67.90;12.30;97354.00;;;;5070439;28;20196;-79
2024/01/25 01:54:36;;;;;;;5.13;1.70;;;13.40;67.80;12.30;97370.00;;;;5069672;28;20184;-79
2024/01/25 01:57:06;;;;;;;4.97;1.50;;;13.40;67.80;12.30;97355.00;;;;5069233;28;20307;-80
2024/01/25 01:59:33;;;;;;;6.90;1.50;;;13.50;67.80;12.30;97349.00;;;;5068304;28;20216;-79
2024/01/25 02:02:00;;;;;;;4.00;1.10;;;13.50;67.90;12.30;97349.00;;;;5068665;28;20710;-80
2024/01/25 02:04:27;;;;;;;5.53;1.40;;;13.50;67.90;12.40;97351.00;;;;5072804;28;20200;-80
2024/01/25 02:06:55;;;;;;;8.97;1.60;;;13.50;68.00;12.40;97347.00;;;;5072909;28;20207;-79
2024/01/25 02:09:23;;;;;;;8.03;2.20;;;13.50;68.70;12.40;97347.00;;;;5073466;28;20575;-80
2024/01/25 02:12:04;;;;;;;6.93;1.60;;;13.50;67.90;12.40;97345.00;;;;5075400;28;20192;-80
2024/01/25 02:14:32;;;;;;;5.83;2.13;;;13.50;67.60;12.40;97349.00;;;;5075072;28;20188;-79
2024/01/25 02:16:59;;;;;;;6.53;1.63;;;13.50;67.90;12.40;97346.00;;;;5079221;28;20242;-79
2024/01/25 02:19:26;;;;;;;11.07;1.53;;;13.50;67.90;12.40;97347.00;;;;5077868;28;20231;-79
2024/01/25 02:21:58;;;;;;;5.80;1.40;;;13.50;68.00;12.40;97352.00;;;;5079655;28;20220;-80
2024/01/25 02:24:27;;;;;;;10.77;1.57;;;13.50;68.00;12.40;97350.00;;;;5083319;28;20188;-80
2024/01/25 02:26:54;;;;;;;2.77;1.20;;;13.50;68.00;12.40;97348.00;;;;5085641;28;20202;-79
2024/01/25 02:29:21;;;;;;;2.07;1.23;;;13.50;68.00;12.50;97353.00;;;;5081205;28;20261;-79
2024/01/25 02:31:56;;;;;;;3.77;2.00;;;13.50;67.90;12.40;97338.00;;;;5076586;28;20295;-80
2024/01/25 02:34:24;;;;;;;4.23;1.47;;;13.50;67.90;12.50;97339.00;;;;5068996;28;20199;-79
2024/01/25 02:36:51;;;;;;;4.63;1.50;;;13.50;67.90;12.40;97339.00;;;;5074763;28;20214;-79
2024/01/25 02:39:18;;;;;;;5.23;1.80;;;13.60;67.80;12.40;97332.00;;;;5076612;28;20203;-80
2024/01/25 02:41:47;;;;;;;6.20;2.17;;;13.50;67.70;12.40;97331.00;;;;5074007;28;20230;-79
2024/01/25 02:44:14;;;;;;;6.57;2.07;;;13.50;67.80;12.40;97337.00;;;;5072920;28;20265;-79
2024/01/25 02:46:44;;;;;;;5.17;1.27;;;13.60;67.90;12.40;97342.00;;;;5072966;28;20640;-80
2024/01/25 02:49:11;;;;;;;5.43;1.90;;;13.50;68.50;12.40;97334.00;;;;5076318;28;20211;-79
2024/01/25 02:51:39;;;;;;;5.20;1.50;;;13.50;67.80;12.40;97330.00;;;;5072113;28;20222;-80
2024/01/25 02:54:06;;;;;;;4.73;1.27;;;13.50;67.90;12.40;97339.00;;;;5072395;28;20625;-80
2024/01/25 02:56:34;;;;;;;5.30;1.10;;;13.50;67.90;12.40;97334.00;;;;5071981;28;20208;-80
2024/01/25 02:59:03;;;;;;;9.00;2.40;;;13.50;67.90;12.40;97343.00;;;;5071182;28;20211;-80
2024/01/25 03:01:41;;;;;;;6.17;1.70;;;13.50;67.80;12.40;97336.00;;;;5073597;28;20224;-80
2024/01/25 03:04:08;;;;;;;6.03;1.80;;;13.50;67.50;12.40;97330.00;;;;5074138;28;20220;-80
2024/01/25 03:06:35;;;;;;;5.17;1.53;;;13.50;67.90;12.40;97331.00;;;;5075647;28;20242;-79
2024/01/25 03:09:04;;;;;;;4.77;1.43;;;13.50;67.90;12.40;97315.00;;;;5074133;28;20257;-79
2024/01/25 03:11:31;;;;;;;3.83;1.80;;;13.50;67.90;12.40;97314.00;;;;5073477;28;20665;-80
2024/01/25 03:13:59;;;;;;;4.40;1.40;;;13.50;68.00;12.40;97311.00;;;;5052638;28;20197;-80
2024/01/25 03:16:27;;;;;;;7.50;1.77;;;13.50;68.00;12.40;97318.00;;;;5073116;28;20203;-80
2024/01/25 03:18:55;;;;;;;4.67;1.47;;;13.50;68.00;12.40;97321.00;;;;5073576;28;20896;-80
2024/01/25 03:21:22;;;;;;;9.47;2.10;;;13.50;68.10;12.40;97324.00;;;;5072044;28;20584;-80
2024/01/25 03:23:52;;;;;;;3.50;1.47;;;13.50;68.20;12.40;97326.00;;;;5074475;28;20220;-80
2024/01/25 03:26:19;;;;;;;6.23;1.23;;;13.50;68.10;12.40;97339.00;;;;5071449;28;20220;-80
2024/01/25 03:28:47;;;;;;;6.70;1.60;;;13.50;68.20;12.40;97341.00;;;;5089375;28;20576;-80
2024/01/25 03:31:15;;;;;;;2.70;1.27;;;13.50;68.20;12.40;97345.00;;;;5073117;28;20196;-80
2024/01/25 03:33:44;;;;;;;4.63;1.60;;;13.50;68.10;12.40;97336.00;;;;5073811;28;20290;-80
2024/01/25 03:36:15;;;;;;;4.07;1.60;;;13.50;68.10;12.40;97341.00;;;;5072686;28;20300;-80
2024/01/25 03:38:43;;;;;;;6.63;1.67;;;13.50;68.00;12.30;97345.00;;;;5071296;28;20215;-80
2024/01/25 03:41:10;;;;;;;4.67;1.93;;;13.50;68.20;12.40;97344.00;;;;5071807;28;20189;-80
2024/01/25 03:43:38;;;;;;;6.57;1.70;;;13.40;68.20;12.30;97354.00;;;;5065969;28;20219;-79
2024/01/25 03:46:05;;;;;;;9.23;1.67;;;13.40;68.20;12.30;97364.00;;;;5070683;28;20312;-80
2024/01/25 03:48:32;;;;;;;7.17;1.80;;;13.40;68.20;12.30;97357.00;;;;5071744;28;20302;-80
2024/01/25 03:51:01;;;;;;;10.63;2.03;;;13.40;68.20;12.30;97368.00;;;;5073861;28;20184;-80
2024/01/25 03:53:28;;;;;;;9.90;2.00;;;13.40;68.20;12.30;97371.00;;;;5074045;28;20215;-80
2024/01/25 03:55:56;;;;;;;8.03;1.63;;;13.40;68.30;12.30;97361.00;;;;5070257;28;20279;-80
2024/01/25 03:58:23;;;;;;;5.37;1.47;;;13.40;68.50;12.30;97361.00;;;;5074351;28;20662;-79
2024/01/25 04:00:51;;;;;;;7.70;1.93;;;13.40;68.40;12.30;97361.00;;;;5071726;28;20196;-80
2024/01/25 04:03:18;;;;;;;13.17;1.77;;;13.40;68.50;12.30;97368.00;;;;5073835;28;20188;-80
2024/01/25 04:05:45;;;;;;;5.80;1.70;;;13.40;68.70;12.30;97365.00;;;;5068679;28;21162;-80
2024/01/25 04:08:14;;;;;;;5.63;1.53;;;13.40;68.60;12.30;97369.00;;;;5072800;28;20194;-80
2024/01/25 04:10:41;;;;;;;4.50;1.17;;;13.40;68.50;12.30;97378.00;;;;5069020;28;20241;-80
2024/01/25 04:13:09;;;;;;;13.60;2.10;;;13.40;68.60;12.30;97378.00;;;;5071121;28;20216;-80
2024/01/25 04:15:36;;;;;;;4.87;1.77;;;13.40;68.60;12.30;97371.00;;;;5072641;28;20188;-80
2024/01/25 04:18:04;;;;;;;9.13;1.60;;;13.40;68.70;12.30;97380.00;;;;5071796;28;20235;-80
2024/01/25 04:20:34;;;;;;;6.07;1.83;;;13.40;68.70;12.30;97379.00;;;;5072554;28;20838;-80
2024/01/25 04:23:01;;;;;;;7.97;2.57;;;13.40;68.70;12.30;97385.00;;;;5071568;28;20183;-80
2024/01/25 04:25:30;;;;;;;9.40;2.30;;;13.40;68.70;12.30;97378.00;;;;5070272;28;20645;-80
2024/01/25 04:27:57;;;;;;;5.03;1.60;;;13.40;68.70;12.30;97380.00;;;;5072482;28;20191;-80
2024/01/25 04:30:24;;;;;;;5.87;1.60;;;13.40;68.70;12.30;97395.00;;;;5070872;28;20627;-80
2024/01/25 04:32:52;;;;;;;6.60;1.77;;;13.40;68.60;12.30;97393.00;;;;5072649;28;20285;-80
2024/01/25 04:35:19;;;;;;;5.17;1.37;;;13.40;68.60;12.30;97380.00;;;;5070197;28;20249;-80
2024/01/25 04:37:46;;;;;;;7.63;2.60;;;13.40;68.60;12.30;97387.00;;;;5071435;28;20307;-80
2024/01/25 04:40:14;;;;;;;7.80;1.60;;;13.40;68.50;12.30;97394.00;;;;5063831;28;20292;-80
2024/01/25 04:42:43;;;;;;;5.97;1.80;;;13.40;68.50;12.30;97395.00;;;;5067455;28;20230;-80
2024/01/25 04:45:11;;;;;;;7.53;1.97;;;13.40;68.50;12.30;97394.00;;;;5065595;28;20207;-80
2024/01/25 04:47:39;;;;;;;7.80;2.03;;;13.40;68.50;12.30;97395.00;;;;5072043;28;20261;-79
2024/01/25 04:50:07;;;;;;;6.33;1.80;;;13.40;68.50;12.30;97385.00;;;;5085985;28;20204;-80
2024/01/25 04:52:34;;;;;;;10.70;2.37;;;13.40;68.50;12.30;97401.00;;;;5082674;28;20948;-80
2024/01/25 04:55:01;;;;;;;12.50;2.07;;;13.40;68.60;12.30;97404.00;;;;5084581;28;20188;-79
2024/01/25 04:57:29;;;;;;;7.93;2.30;;;13.40;68.60;12.30;97398.00;;;;5079042;28;20212;-80
2024/01/25 04:59:58;;;;;;;20.77;2.40;;;13.40;68.50;12.30;97407.00;;;;5076019;28;20200;-80
2024/01/25 05:02:25;;;;;;;8.83;1.97;;;13.40;68.40;12.30;97410.00;;;;5074204;28;20211;-80
2024/01/25 05:04:52;;;;;;;7.27;1.90;;;13.40;68.50;12.30;97410.00;;;;5075445;28;20215;-80
2024/01/25 05:07:19;;;;;;;9.20;2.20;;;13.40;68.60;12.30;97412.00;;;;5069114;28;20253;-80
2024/01/25 05:09:47;;;;;;;5.00;1.90;;;13.40;68.60;12.30;97417.00;;;;5070667;28;20693;-80
2024/01/25 05:12:14;;;;;;;6.03;1.90;;;13.40;68.60;12.30;97420.00;;;;5071174;28;20675;-80
2024/01/25 05:14:42;;;;;;;6.63;1.67;;;13.40;68.50;12.30;97428.00;;;;5073063;28;20269;-80
2024/01/25 05:17:10;;;;;;;7.73;1.73;;;13.40;68.50;12.30;97427.00;;;;5071747;28;20236;-80
2024/01/25 05:19:38;;;;;;;8.53;2.20;;;13.40;69.20;12.20;97427.00;;;;5066516;28;20239;-80
2024/01/25 05:22:06;;;;;;;11.87;1.70;;;13.40;68.30;12.20;97432.00;;;;5075418;28;20192;-80
2024/01/25 05:24:33;;;;;;;14.43;1.97;;;13.40;68.40;12.20;97438.00;;;;5071401;28;20191;-80
2024/01/25 05:27:01;;;;;;;8.40;2.27;;;13.40;68.50;12.20;97437.00;;;;5070292;28;20199;-80
2024/01/25 05:29:29;;;;;;;10.90;2.13;;;13.30;68.50;12.20;97436.00;;;;5071595;28;20251;-80
2024/01/25 05:31:57;;;;;;;7.63;2.23;;;13.30;68.40;12.10;97438.00;;;;5069327;28;20395;-80
2024/01/25 05:34:28;;;;;;;10.23;2.10;;;13.30;68.10;12.10;97447.00;;;;5071288;28;20188;-81
2024/01/25 05:36:55;;;;;;;13.43;2.40;;;13.30;68.10;12.10;97444.00;;;;5071214;28;20219;-82
2024/01/25 05:39:22;;;;;;;8.53;2.00;;;13.20;68.10;12.00;97447.00;;;;5073167;28;20718;-80
2024/01/25 05:41:49;;;;;;;5.87;1.70;;;13.20;68.00;12.00;97444.00;;;;5069004;28;20219;-80
2024/01/25 05:44:16;;;;;;;8.13;1.73;;;13.20;67.90;11.90;97443.00;;;;5070629;28;20188;-80
2024/01/25 05:46:44;;;;;;;9.43;2.23;;;13.10;67.90;11.90;97457.00;;;;5074171;28;20748;-80
2024/01/25 05:49:11;;;;;;;6.57;1.70;;;13.10;67.90;11.80;97458.00;;;;5074079;28;20231;-80
2024/01/25 05:51:39;;;;;;;11.73;2.20;;;13.10;68.00;11.80;97453.00;;;;5070067;28;20192;-81
2024/01/25 05:54:07;;;;;;;10.77;2.07;;;13.00;67.90;11.70;97453.00;;;;5076567;28;20256;-80
2024/01/25 05:56:37;;;;;;;4.07;1.63;;;12.90;68.00;11.70;97454.00;;;;5071855;28;20192;-80
2024/01/25 05:59:04;;;;;;;8.00;1.80;;;12.90;68.70;11.70;97457.00;;;;5074788;28;20243;-80
2024/01/25 06:01:32;;;;;;;7.27;1.80;;;12.90;67.90;11.70;97457.00;;;;5076475;28;20192;-80
2024/01/25 06:03:59;;;;;;;7.40;2.00;;;12.80;67.90;11.60;97451.00;;;;5072849;28;20191;-80
2024/01/25 06:06:27;;;;;;;5.90;1.60;;;12.80;67.90;11.60;97452.00;;;;5077311;28;20608;-80
2024/01/25 06:08:56;;;;;;;8.57;3.03;;;12.80;67.90;11.50;97466.00;;;;5075308;28;20247;-80
2024/01/25 06:11:23;;;;;;;6.50;1.60;;;12.70;67.80;11.50;97473.00;;;;5076995;28;20219;-80
2024/01/25 06:13:50;;;;;;;7.87;2.00;;;12.70;67.90;11.50;97479.00;;;;5077715;28;20211;-81
2024/01/25 06:16:17;;;;;;;3.67;1.63;;;12.70;68.10;11.50;97482.00;;;;5087029;28;20180;-80
2024/01/25 06:18:45;;;;;;;7.93;2.00;;;12.70;68.30;11.50;97495.00;;;;5087904;28;20215;-80
2024/01/25 06:21:12;;;;;;;6.60;1.97;;;12.70;68.40;11.50;97486.00;;;;5081119;28;20191;-80
2024/01/25 06:23:39;;;;;;;4.30;1.50;;;12.70;68.40;11.60;97486.00;;;;5073771;28;20184;-81
2024/01/25 06:26:10;;;;;;;7.40;1.77;;;12.70;68.50;11.60;97493.00;;;;5075247;28;20250;-80
2024/01/25 06:28:37;;;;;;;12.23;2.50;;;12.70;68.40;11.60;97503.00;;;;5068430;28;20684;-81
2024/01/25 06:31:04;;;;;;;9.03;1.77;;;12.70;68.50;11.60;97499.00;;;;5069766;28;20216;-80
2024/01/25 06:33:32;;;;;;;9.30;2.03;;;12.80;68.40;11.60;97501.00;;;;5072847;28;20245;-80
2024/01/25 06:36:01;;;;;;;9.60;2.47;;;12.70;68.30;11.60;97504.00;;;;5073015;28;20711;-80
2024/01/25 06:38:28;;;;;;;8.80;1.90;;;12.80;68.10;11.60;97512.00;;;;5072278;28;20298;-80
2024/01/25 06:40:55;;;;;;;7.70;2.07;;;12.80;68.00;11.60;97517.00;;;;5074632;28;20265;-80
2024/01/25 06:43:23;;;;;;;19.83;2.77;;;12.80;68.00;11.60;97518.00;;;;5073151;28;20192;-81
2024/01/25 06:45:51;;;;;;;8.83;1.80;;;12.80;68.00;11.70;97523.00;;;;5072652;28;20661;-80
2024/01/25 06:48:18;;;;;;;7.73;2.23;;;12.80;68.20;11.70;97527.00;;;;5074553;28;20280;-80
2024/01/25 06:50:45;;;;;;;10.83;2.33;;;12.80;68.10;11.70;97532.00;;;;5074294;28;20192;-80
2024/01/25 06:53:12;;;;;;;6.33;1.97;;;12.90;68.00;11.70;97533.00;;;;5074634;28;20231;-80
2024/01/25 06:55:40;;;;;;;9.67;2.10;;;12.90;67.90;11.80;97533.00;;;;5074452;28;20683;-80
2024/01/25 06:58:09;;;;;;;6.50;1.60;;;12.90;67.90;11.80;97531.00;;;;5074356;28;20216;-79
2024/01/25 07:00:38;;;;;;;9.77;2.00;;;13.00;67.80;11.80;97543.00;;;;5074433;28;20203;-80
2024/01/25 07:03:06;;;;;;;6.67;1.93;;;13.00;67.50;11.80;97549.00;;;;5075243;28;20184;-80
2024/01/25 07:05:35;;;;;;;6.27;1.90;;;13.00;67.50;11.80;97555.00;;;;5075054;28;20287;-80
2024/01/25 07:08:02;;;;;;;5.00;1.57;;;13.00;67.40;11.80;97542.00;;;;5074538;28;20261;-80
2024/01/25 07:10:29;;;;;;;6.23;1.77;;;13.00;67.40;11.80;97544.00;;;;5072428;28;20295;-80
2024/01/25 07:12:57;;;;;;;7.27;1.93;;;13.00;67.30;11.90;97557.00;;;;5073585;28;20333;-80
2024/01/25 07:15:24;;;;;;;5.83;2.63;;;13.00;67.20;11.90;97564.00;;;;5076922;28;20192;-80
2024/01/25 07:17:53;;;;;;;6.60;2.00;;;13.00;67.10;11.90;97558.00;;;;5082133;28;20219;-79
2024/01/25 07:20:20;;;;;;;8.17;2.20;;;13.00;67.00;11.90;97560.00;;;;5085290;28;20230;-79
2024/01/25 07:22:47;;;;;;;7.13;2.23;;;13.10;67.30;11.90;97551.00;;;;5078683;28;20215;-79
2024/01/25 07:25:14;;;;;;;6.67;1.67;;;13.10;67.20;11.90;97551.00;;;;5082920;28;20220;-79
2024/01/25 07:27:44;;;;;;;7.03;2.20;;;13.10;67.10;11.90;97569.00;;;;5073458;28;20212;-79
2024/01/25 07:30:13;;;;;;;6.23;2.30;;;13.10;67.00;11.90;97579.00;;;;5070603;28;20357;-79
2024/01/25 07:32:42;;;;;;;8.77;2.33;;;13.10;66.80;12.00;97585.00;;;;5066233;28;20196;-79
2024/01/25 07:35:10;;;;;;;14.67;2.47;;;13.10;67.00;12.00;97587.00;;;;5077965;28;20280;-80
2024/01/25 07:37:38;;;;;;;9.83;2.43;;;13.10;67.00;12.00;97588.00;;;;5069069;28;20665;-80
2024/01/25 07:40:07;;;;;;;8.13;2.50;;;13.10;67.20;12.00;97585.00;;;;5072071;28;20212;-80
2024/01/25 07:42:34;;;;;;;7.10;2.20;;;13.20;67.10;12.00;97581.00;;;;5070539;28;20730;-80
2024/01/25 07:45:02;;;;;;;7.83;2.27;;;13.20;67.10;12.00;97587.00;;;;5072462;28;20227;-80
2024/01/25 07:47:29;;;;;;;6.50;1.87;;;13.20;67.00;12.10;97583.00;;;;5072515;28;20204;-79
2024/01/25 07:49:57;;;;;;;5.50;1.97;;;13.20;67.00;12.10;97560.00;;;;5076374;28;20216;-80
2024/01/25 07:52:25;;;;;;;12.60;3.30;;;13.20;67.00;12.10;97560.00;;;;5071613;28;20643;-79
2024/01/25 07:54:54;;;;;;;14.80;3.13;;;13.20;66.80;12.00;97562.00;;;;5073373;28;20650;-79
2024/01/25 07:57:21;;;;;;;5.67;2.10;;;13.20;66.90;12.00;97563.00;;;;5064808;28;20219;-82
2024/01/25 07:59:48;;;;;;;5.73;2.10;;;13.20;66.70;12.00;97574.00;;;;5074588;28;20265;-79
2024/01/25 08:02:16;;;;;;;6.47;1.87;;;13.20;66.60;12.00;97577.00;;;;5073473;28;20246;-80
2024/01/25 08:04:44;;;;;;;4.87;2.00;;;13.20;66.60;12.00;97587.00;;;;5068487;28;20733;-79
2024/01/25 08:07:11;;;;;;;5.47;1.97;;;13.20;66.70;12.00;97592.00;;;;5071307;28;20195;-79
2024/01/25 08:09:40;;;;;;;10.90;2.17;;;13.20;66.70;12.00;97600.00;;;;5067158;28;20211;-79
2024/01/25 08:12:08;;;;;;;11.10;2.33;;;13.20;66.70;12.00;97604.00;;;;5072620;28;20220;-80
2024/01/25 08:14:35;;;;;;;11.97;2.53;;;13.20;66.80;12.00;97607.00;;;;5072331;28;20234;-79
2024/01/25 08:17:02;;;;;;;5.63;2.40;;;13.20;67.10;12.10;97595.00;;;;5072250;28;20187;-80
2024/01/25 08:19:29;;;;;;;6.27;1.83;;;13.20;67.10;12.10;97604.00;;;;5070609;28;20228;-80
2024/01/25 08:21:56;;;;;;;8.93;2.03;;;13.30;67.20;12.10;97590.00;;;;5070480;28;20230;-80
2024/01/25 08:24:24;;;;;;;7.73;2.20;;;13.30;67.00;12.10;97604.00;;;;5071620;28;20804;-79
2024/01/25 08:26:52;;;;;;;9.77;2.70;;;13.30;66.50;12.00;97612.00;;;;5067612;28;20261;-80
2024/01/25 08:29:20;;;;;;;11.63;2.57;;;13.30;66.30;12.00;97611.00;;;;5071391;28;20316;-80
2024/01/25 08:31:47;;;;;;;6.47;2.70;;;13.20;66.30;12.00;97618.00;;;;5070357;28;20688;-79
2024/01/25 08:34:15;;;;;;;6.57;2.33;;;13.20;66.20;12.00;97603.00;;;;5072130;28;20192;-80
2024/01/25 08:36:42;;;;;;;5.13;1.90;;;13.20;66.20;12.00;97606.00;;;;5073013;28;20249;-80
2024/01/25 08:39:09;;;;;;;6.07;2.13;;;13.20;66.20;12.00;97613.00;;;;5072780;28;20695;-80
2024/01/25 08:41:36;;;;;;;10.37;2.03;;;13.20;66.10;11.90;97613.00;;;;5073432;28;20184;-80
2024/01/25 08:44:10;;;;;;;13.17;2.57;;;13.20;66.20;11.90;97612.00;;;;5081219;28;20740;-80
2024/01/25 08:46:38;;;;;;;15.90;2.20;;;13.10;65.90;12.00;97610.00;;;;5068365;28;20196;-80
2024/01/25 08:49:08;;;;;;;6.03;1.80;;;13.20;66.40;12.00;97617.00;;;;5071779;28;20672;-80
2024/01/25 08:51:35;;;;;;;7.50;1.90;;;13.20;66.50;12.10;97626.00;;;;5073522;28;20559;-79
2024/01/25 08:54:04;;;;;;;9.00;1.77;;;13.20;66.60;12.10;97622.00;;;;5071819;28;20214;-80
2024/01/25 08:56:31;;;;;;;8.53;2.07;;;13.20;66.60;12.20;97628.00;;;;5072700;28;20195;-80
2024/01/25 08:58:58;;;;;;;5.17;1.77;;;13.30;67.40;12.20;97631.00;;;;5073772;28;20231;-80
2024/01/25 09:01:27;;;;;;;7.37;2.07;;;13.30;66.70;12.30;97643.00;;;;5072153;28;20212;-80
2024/01/25 09:03:54;;;;;;;8.17;2.23;;;13.40;66.60;12.40;97648.00;;;;5072226;28;20287;-79
2024/01/25 09:06:21;;;;;;;6.47;1.60;;;13.40;66.70;12.40;97652.00;;;;5071621;28;20589;-80
2024/01/25 09:08:48;;;;;;;7.17;1.87;;;13.50;66.70;12.50;97649.00;;;;5070585;28;20216;-80
2024/01/25 09:11:16;;;;;;;7.67;1.80;;;13.50;66.70;12.50;97656.00;;;;5076104;28;20200;-80
2024/01/25 09:13:45;;;;;;;7.37;2.07;;;13.60;66.40;12.50;97652.00;;;;5069450;28;20200;-80
2024/01/25 09:16:12;;;;;;;7.50;2.27;;;13.60;66.00;12.60;97652.00;;;;5069736;28;20322;-80
2024/01/25 09:18:40;;;;;;;8.90;2.07;;;13.60;66.10;12.60;97655.00;;;;5064420;28;20765;-80
2024/01/25 09:21:08;;;;;;;10.87;2.93;;;13.70;66.10;12.60;97650.00;;;;5071846;28;20227;-79
2024/01/25 09:23:35;;;;;;;7.20;2.50;;;13.70;66.20;12.70;97651.00;;;;5071344;28;20196;-80
2024/01/25 09:26:02;;;;;;;9.60;2.07;;;13.80;66.20;12.70;97655.00;;;;5070591;28;20283;-80
2024/01/25 09:28:29;;;;;;;5.63;2.17;;;13.80;66.40;12.80;97666.00;;;;5069956;28;20220;-79
2024/01/25 09:30:57;;;;;;;6.27;1.60;;;13.90;67.00;12.90;97674.00;;;;5069576;28;20204;-79
2024/01/25 09:33:24;;;;;;;7.70;2.40;;;13.90;66.90;12.90;97665.00;;;;5072643;28;20279;-80
2024/01/25 09:35:53;;;;;;;6.77;1.80;;;14.00;66.00;13.00;97677.00;;;;5071122;28;20187;-80
2024/01/25 09:38:20;;;;;;;5.57;2.03;;;14.00;65.70;13.00;97675.00;;;;5069143;28;20224;-80
2024/01/25 09:40:48;;;;;;;6.47;2.30;;;14.10;65.70;13.00;97680.00;;;;5073279;28;20219;-79
2024/01/25 09:43:16;;;;;;;6.00;1.47;;;14.10;65.40;13.10;97683.00;;;;5071349;28;20199;-79
2024/01/25 09:45:44;;;;;;;6.87;1.60;;;14.20;65.10;13.10;97677.00;;;;5070642;28;20291;-80
2024/01/25 09:48:14;;;;;;;6.50;1.83;;;14.20;64.50;13.10;97680.00;;;;5063743;28;20195;-80
2024/01/25 09:50:42;;;;;;;7.40;1.93;;;14.30;64.20;13.10;97675.00;;;;5070620;28;20188;-80
2024/01/25 09:53:18;;;;;;;4.43;1.63;;;14.30;64.20;13.10;97680.00;;;;5069055;28;20192;-80
2024/01/25 09:55:57;;;;;;;6.50;1.90;;;14.30;63.70;13.20;97679.00;;;;5066107;28;20266;-79
2024/01/25 09:58:26;;;;;;;7.93;2.33;;;14.30;64.60;13.30;97680.00;;;;5066728;28;20219;-79
2024/01/25 10:00:53;;;;;;;9.93;1.83;;;14.40;64.20;13.40;97677.00;;;;5069911;28;20192;-80
2024/01/25 10:03:21;;;;;;;4.33;1.90;;;14.50;64.50;13.50;97673.00;;;;5067835;28;20263;-79
2024/01/25 10:05:48;;;;;;;7.40;2.03;;;14.60;64.80;13.70;97676.00;;;;5068314;28;20223;-79
2024/01/25 10:08:18;;;;;;;6.17;1.80;;;14.70;64.70;13.80;97677.00;;;;5069907;28;20286;-80
2024/01/25 10:10:46;;;;;;;9.13;1.97;;;14.90;64.00;14.00;97693.00;;;;5073333;28;20196;-80
2024/01/25 10:13:14;;;;;;;8.03;1.77;;;15.00;64.40;14.20;97699.00;;;;5070366;28;20204;-80
2024/01/25 10:15:44;;;;;;;4.73;1.87;;;15.20;63.80;14.30;97703.00;;;;5073061;28;20203;-80
2024/01/25 10:18:13;;;;;;;8.03;2.43;;;15.30;62.80;14.30;97694.00;;;;5071292;28;20284;-79
2024/01/25 10:20:41;;;;;;;6.00;1.93;;;15.50;61.60;14.30;97687.00;;;;5071013;28;20200;-80
2024/01/25 10:23:08;;;;;;;7.60;1.60;;;15.50;61.40;14.30;97685.00;;;;5071916;28;20188;-79
2024/01/25 10:25:38;;;;;;;9.23;2.37;;;15.50;61.10;14.40;97697.00;;;;5075496;28;20279;-80
2024/01/25 10:28:05;;;;;;;9.00;2.30;;;15.50;60.80;14.40;97688.00;;;;5074520;28;20287;-80
2024/01/25 10:30:34;;;;;;;7.47;2.30;;;15.60;61.40;14.50;97674.00;;;;5076602;28;20228;-79
2024/01/25 10:33:02;;;;;;;5.83;2.10;;;15.60;61.40;14.60;97680.00;;;;5075365;28;20580;-80
2024/01/25 10:35:31;;;;;;;8.43;2.33;;;15.70;61.20;14.70;97674.00;;;;5078585;28;20206;-80
2024/01/25 10:37:58;;;;;;;7.77;2.03;;;15.80;61.10;14.70;97673.00;;;;5074096;28;20196;-79
2024/01/25 10:40:27;;;;;;;5.60;2.07;;;15.80;60.80;14.70;97669.00;;;;5074071;28;20755;-80
2024/01/25 10:42:56;;;;;;;5.63;2.00;;;15.90;60.00;14.70;97668.00;;;;5074011;28;20208;-79
2024/01/25 10:45:23;;;;;;;6.87;1.73;;;15.80;59.70;14.70;97662.00;;;;5075580;28;20191;-80
2024/01/25 10:47:51;;;;;;;5.37;1.90;;;15.80;59.70;14.60;97669.00;;;;5073546;28;20851;-80
2024/01/25 10:50:18;;;;;;;9.60;2.23;;;15.80;59.40;14.60;97660.00;;;;5075939;28;20303;-80
2024/01/25 10:52:47;;;;;;;5.57;1.80;;;15.80;59.40;14.60;97663.00;;;;5070512;28;20665;-79
2024/01/25 10:55:16;;;;;;;5.23;1.93;;;15.80;59.30;14.60;97665.00;;;;5071927;28;20212;-80